createdAt,value
2022-11-27T00:10:21.188Z,10.35
2022-11-27T00:22:21.193Z,10.34
2022-11-27T00:34:21.194Z,10.33
2022-11-27T00:46:26.646Z,10.32
2022-11-27T00:58:21.209Z,10.31
2022-11-27T01:10:21.208Z,10.30
2022-11-27T01:22:21.210Z,10.29
2022-11-27T01:34:21.314Z,10.28
2022-11-27T01:46:21.360Z,10.26
2022-11-27T01:58:21.517Z,10.25
2022-11-27T02:10:21.192Z,10.24
2022-11-27T02:22:21.193Z,10.21
2022-11-27T02:34:21.223Z,10.19
2022-11-27T02:46:21.228Z,10.16
2022-11-27T02:58:21.306Z,10.13
2022-11-27T03:10:21.286Z,10.10
2022-11-27T03:22:21.214Z,10.03
2022-11-27T03:34:21.210Z,9.99
2022-11-27T03:46:21.366Z,9.91
2022-11-27T03:58:21.290Z,9.85
2022-11-27T04:10:21.192Z,9.77
2022-11-27T04:22:21.196Z,9.62
2022-11-27T04:34:21.201Z,9.53
2022-11-27T04:46:21.351Z,9.48
2022-11-27T04:58:21.193Z,9.47
2022-11-27T05:10:21.314Z,9.45
2022-11-27T05:22:21.191Z,9.44
2022-11-27T05:34:21.307Z,9.44
2022-11-27T05:46:21.318Z,9.42
2022-11-27T05:58:21.312Z,9.42
2022-11-27T06:10:21.828Z,9.42
2022-11-27T06:22:21.520Z,9.41
2022-11-27T06:34:21.197Z,9.41
2022-11-27T06:46:21.292Z,9.40
2022-11-27T06:58:21.270Z,9.40
2022-11-27T07:10:21.301Z,9.40
2022-11-27T07:22:21.246Z,9.40
2022-11-27T07:34:21.933Z,9.40
2022-11-27T07:46:21.630Z,9.41
2022-11-27T07:58:21.195Z,9.41
2022-11-27T08:10:21.205Z,9.41
2022-11-27T08:22:21.299Z,9.41
2022-11-27T08:34:21.296Z,9.41
2022-11-27T08:46:21.356Z,9.43
2022-11-27T08:58:21.265Z,9.50
2022-11-27T09:10:21.190Z,9.64
2022-11-27T09:22:21.194Z,9.71
2022-11-27T09:34:21.261Z,9.72
2022-11-27T09:46:21.293Z,9.77
2022-11-27T09:58:21.203Z,9.84
2022-11-27T10:10:21.270Z,9.90
2022-11-27T10:22:21.509Z,10.07
2022-11-27T10:34:21.203Z,10.13
2022-11-27T10:46:21.280Z,10.49
2022-11-27T10:58:21.194Z,10.69
2022-11-27T11:10:21.193Z,10.71
2022-11-27T11:22:21.192Z,10.66
2022-11-27T11:34:21.318Z,10.64
2022-11-27T11:46:21.307Z,10.64
2022-11-27T11:58:21.330Z,10.65
2022-11-27T12:10:21.206Z,10.64
2022-11-27T12:22:21.308Z,10.65
2022-11-27T12:34:21.304Z,10.66
2022-11-27T12:46:21.334Z,10.68
2022-11-27T12:58:21.306Z,10.70
2022-11-27T13:10:21.193Z,10.69
2022-11-27T13:22:21.188Z,10.67
2022-11-27T13:34:21.196Z,10.67
2022-11-27T13:46:21.280Z,10.66
2022-11-27T13:58:21.288Z,10.65
2022-11-27T14:10:21.307Z,10.64
2022-11-27T14:22:21.261Z,10.63
2022-11-27T14:34:24.655Z,10.60
2022-11-27T14:46:21.315Z,10.61
2022-11-27T14:58:21.209Z,10.59
2022-11-27T15:10:21.228Z,10.58
2022-11-27T15:22:21.189Z,10.56
2022-11-27T15:34:21.208Z,10.55
2022-11-27T15:46:21.317Z,10.52
2022-11-27T15:58:21.286Z,10.52
2022-11-27T16:10:21.189Z,10.51
2022-11-27T16:22:21.291Z,10.50
2022-11-27T16:34:21.255Z,10.48
2022-11-27T16:46:21.388Z,10.46
2022-11-27T16:58:21.205Z,10.46
2022-11-27T17:10:21.317Z,10.45
2022-11-27T17:22:21.230Z,10.43
2022-11-27T17:34:21.301Z,10.42
2022-11-27T17:46:21.354Z,10.41
2022-11-27T17:58:21.189Z,10.40
2022-11-27T18:10:21.224Z,10.39
2022-11-27T18:22:21.299Z,10.38
2022-11-27T18:34:21.202Z,10.37
2022-11-27T18:46:21.370Z,10.36
2022-11-27T18:58:21.303Z,10.35
2022-11-27T19:10:21.292Z,10.34
2022-11-27T19:22:21.191Z,10.32
2022-11-27T19:34:21.305Z,10.32
2022-11-27T19:46:21.227Z,10.31
2022-11-27T19:58:21.303Z,10.30
2022-11-27T20:10:21.189Z,10.29
2022-11-27T20:22:21.259Z,10.27
2022-11-27T20:34:21.270Z,10.26
2022-11-27T20:46:21.327Z,10.24
2022-11-27T20:58:21.247Z,10.21
2022-11-27T21:10:21.261Z,10.18
2022-11-27T21:22:21.620Z,10.15
2022-11-27T21:34:21.318Z,10.13
2022-11-27T21:46:21.291Z,10.06
2022-11-27T21:58:21.294Z,10.03
2022-11-27T22:10:21.252Z,9.99
2022-11-27T22:22:21.319Z,9.90
2022-11-27T22:34:21.294Z,9.84
2022-11-27T22:46:21.258Z,9.72
2022-11-27T22:58:21.293Z,9.62
2022-11-27T23:10:21.309Z,9.54
2022-11-27T23:22:21.290Z,9.48
2022-11-27T23:34:21.258Z,9.46
2022-11-27T23:46:21.333Z,9.44
2022-11-27T23:58:21.192Z,9.43
